Track Слепенков Матвей

Time Latitude Longitude Accuracy (66% radius in meters) Altitude (meters) Speed (km/hour) Bearing (degrees) Battery (%) GPS flag
06:54:35 57.199275 60.121724 0 0 0 0 1 delete
06:54:33 57.199347 60.121736 0 0 0 0 1 delete
06:54:31 57.199421 60.121755 0 0 0 0 1 delete
06:54:29 57.199487 60.121768 0 0 0 0 1 delete
06:54:27 57.199563 60.121770 0 0 0 0 1 delete
06:54:25 57.199637 60.121773 0 0 0 0 1 delete
06:54:23 57.199729 60.121753 0 0 0 0 1 delete
06:54:21 57.199834 60.121722 0 0 0 0 1 delete
06:54:19 57.199953 60.121700 0 0 0 0 1 delete
06:54:18 57.200025 60.121688 0 0 0 0 1 delete
06:54:17 57.200108 60.121668 0 0 0 0 1 delete
06:54:16 57.200200 60.121638 0 0 0 0 1 delete
06:54:15 57.200292 60.121600 0 0 0 0 1 delete
06:54:14 57.200384 60.121556 0 0 0 0 1 delete
06:54:13 57.200467 60.121506 0 0 0 0 1 delete
06:54:12 57.200549 60.121467 0 0 0 0 1 delete
06:54:11 57.200624 60.121443 0 0 0 0 1 delete
06:54:10 57.200695 60.121428 0 0 0 0 1 delete
06:54:08 57.200832 60.121398 0 0 0 0 1 delete
06:54:07 57.200907 60.121401 0 0 0 0 1 delete
06:54:06 57.200985 60.121411 0 0 0 0 1 delete
06:54:05 57.201067 60.121436 0 0 0 0 1 delete
06:54:04 57.201158 60.121452 0 0 0 0 1 delete
06:54:03 57.201248 60.121432 0 0 0 0 1 delete
06:54:02 57.201332 60.121383 0 0 0 0 1 delete
06:54:00 57.201469 60.121256 0 0 0 0 1 delete
06:53:58 57.201586 60.121120 0 0 0 0 1 delete
06:53:56 57.201679 60.121003 0 0 0 0 1 delete
06:53:54 57.201748 60.120914 0 0 0 0 1 delete
06:53:51 57.201832 60.120818 0 0 0 0 1 delete
06:53:49 57.201896 60.120764 0 0 0 0 1 delete
06:53:46 57.201979 60.120692 0 0 0 0 1 delete
06:53:43 57.202062 60.120623 0 0 0 0 1 delete
06:53:40 57.202148 60.120566 0 0 0 0 1 delete
06:53:37 57.202245 60.120485 0 0 0 0 1 delete
06:53:35 57.202315 60.120411 0 0 0 0 1 delete
06:53:32 57.202412 60.120334 0 0 0 0 1 delete
06:53:28 57.202487 60.120235 0 0 0 0 1 delete
06:53:24 57.202581 60.120154 0 0 0 0 1 delete
06:53:21 57.202669 60.120080 0 0 0 0 1 delete
06:53:18 57.202760 60.120002 0 0 0 0 1 delete
06:53:15 57.202866 60.119901 0 0 0 0 1 delete
06:53:13 57.202960 60.119830 0 0 0 0 1 delete
06:53:11 57.203066 60.119745 0 0 0 0 1 delete
06:53:09 57.203165 60.119656 0 0 0 0 1 delete
06:53:06 57.203294 60.119532 0 0 0 0 1 delete
06:52:35 57.203358 60.119439 0 0 0 0 1 delete
06:51:28 57.203380 60.119421 0 0 0 0 1 delete
06:50:52 57.203415 60.119378 0 0 0 0 1 delete